Time;durP1;ratioP1;P1;durP2;ratioP2;P2;SDS_P1;SDS_P2;PMS_P1;PMS_P2;Temp;Humidity;BMP_temperature;BMP_pressure;BME280_temperature;BME280_humidity;BME280_pressure;Samples;Min_cycle;Max_cycle;Signal;HPM_P1;HPM_P2
2022/11/30 00:02:40;;;;;;;57.50;24.30;;;;;;;-0.69;84.74;100850.98;209739;1297;140237;-68
2022/11/30 00:07:44;;;;;;;79.90;31.50;;;;;;;-0.69;84.44;100853.05;209521;1288;140626;-66
2022/11/30 00:12:48;;;;;;;37.60;18.10;;;;;;;-0.80;84.95;100852.96;209792;1288;140726;-65
2022/11/30 00:17:56;;;;;;;43.00;19.90;;;;;;;-0.83;84.62;100858.98;210050;1297;140380;-67
2022/11/30 00:22:59;;;;;;;68.90;26.40;;;;;;;-0.92;84.67;100858.29;209828;1297;141453;-68
2022/11/30 00:28:03;;;;;;;46.40;22.10;;;;;;;-0.97;84.94;100858.90;209900;1298;140717;-65
2022/11/30 00:33:06;;;;;;;46.60;22.10;;;;;;;-0.97;85.11;100853.47;209770;1296;141771;-69
2022/11/30 00:38:10;;;;;;;56.70;25.10;;;;;;;-0.77;85.40;100859.14;210016;1298;141497;-67
2022/11/30 00:43:13;;;;;;;41.70;24.00;;;;;;;-0.57;85.62;100860.50;209995;1297;140329;-66
2022/11/30 00:48:18;;;;;;;51.50;25.20;;;;;;;-0.51;85.25;100870.86;210063;1288;140368;-67
2022/11/30 00:53:21;;;;;;;39.00;20.40;;;;;;;-0.45;84.89;100868.05;210006;1297;140382;-67
2022/11/30 00:58:25;;;;;;;46.80;26.70;;;;;;;-0.36;84.92;100864.59;210063;1296;140322;-65
2022/11/30 01:03:29;;;;;;;37.40;19.80;;;;;;;-0.35;85.08;100867.80;209998;1295;141388;-66
2022/11/30 01:08:33;;;;;;;42.10;21.10;;;;;;;-0.32;84.77;100872.63;209968;1299;141242;-66
2022/11/30 01:13:37;;;;;;;39.90;22.70;;;;;;;-0.26;84.56;100871.36;209973;1296;150319;-68
2022/11/30 01:18:42;;;;;;;44.10;25.20;;;;;;;-0.43;84.22;100874.09;210041;1294;141451;-66
2022/11/30 01:23:46;;;;;;;35.20;17.40;;;;;;;-0.65;84.49;100871.41;209921;1297;143054;-69
2022/11/30 01:28:54;;;;;;;28.60;16.50;;;;;;;-0.75;84.64;100880.43;209987;1289;142190;-65
2022/11/30 01:33:57;;;;;;;;;;;;;;;-0.85;84.74;100880.27;209969;1297;141905;-65
2022/11/30 01:39:00;;;;;;;32.10;17.50;;;;;;;-0.82;85.02;100882.33;209463;1296;126978;-66
2022/11/30 01:44:04;;;;;;;39.60;20.30;;;;;;;-0.90;85.07;100876.92;209187;1298;141673;-65
2022/11/30 01:49:07;;;;;;;42.40;21.50;;;;;;;-0.89;85.21;100882.05;208329;1297;141996;-66
2022/11/30 01:54:16;;;;;;;34.60;19.30;;;;;;;-0.90;85.44;100878.63;210062;1297;140917;-65
2022/11/30 01:59:22;;;;;;;43.00;18.60;;;;;;;-0.95;85.36;100882.73;209847;1297;141340;-66
2022/11/30 02:04:31;;;;;;;31.20;16.30;;;;;;;-0.98;85.51;100879.17;209739;1298;143585;-67
2022/11/30 02:09:43;;;;;;;40.10;18.80;;;;;;;-0.89;85.57;100881.48;210043;1298;141328;-68
2022/11/30 02:14:53;;;;;;;36.50;17.10;;;;;;;-0.78;85.90;100888.43;210057;1289;141607;-66
2022/11/30 02:20:03;;;;;;;47.70;25.70;;;;;;;-0.65;85.75;100890.58;209972;1300;140862;-66
2022/11/30 02:25:58;;;;;;;40.00;21.50;;;;;;;-0.50;85.65;100889.82;210103;1295;140725;-66
2022/11/30 02:31:07;;;;;;;44.90;21.90;;;;;;;-0.44;85.48;100894.83;209641;1302;140641;-66
2022/11/30 02:36:11;;;;;;;49.20;23.90;;;;;;;-0.36;86.02;100889.74;210044;1291;140844;-67
2022/11/30 02:41:15;;;;;;;36.80;19.30;;;;;;;-0.26;85.50;100893.59;209879;1298;140889;-68
2022/11/30 02:46:26;;;;;;;34.90;18.10;;;;;;;-0.44;84.95;100897.44;209919;1297;140910;-68
2022/11/30 02:51:32;;;;;;;36.50;16.10;;;;;;;-0.61;84.85;100895.14;210081;1301;141025;-67
2022/11/30 02:56:36;;;;;;;30.30;16.30;;;;;;;-0.70;84.77;100896.45;210129;1301;141380;-66
2022/11/30 03:01:41;;;;;;;36.30;16.60;;;;;;;-0.76;85.11;100896.38;210046;1294;152591;-67
2022/11/30 03:06:45;;;;;;;43.60;20.50;;;;;;;-0.77;85.25;100901.91;210046;1289;141446;-67
2022/11/30 03:11:48;;;;;;;39.00;20.00;;;;;;;-0.79;85.40;100907.69;210019;1287;142232;-66
2022/11/30 03:16:52;;;;;;;32.60;16.20;;;;;;;-0.77;85.47;100915.36;209980;1297;140072;-65
2022/11/30 03:21:56;;;;;;;44.00;18.70;;;;;;;-0.82;85.54;100918.05;210196;1288;140644;-66
2022/11/30 03:27:00;;;;;;;49.50;18.40;;;;;;;-0.84;85.39;100919.69;209964;1297;220113;-66
2022/11/30 03:32:03;;;;;;;70.10;24.70;;;;;;;-0.89;85.62;100922.00;209401;1288;141272;-67
2022/11/30 03:37:06;;;;;;;41.80;19.40;;;;;;;-0.96;85.51;100916.70;210147;1295;142530;-65
2022/11/30 03:42:10;;;;;;;41.80;19.50;;;;;;;-1.03;85.70;100922.15;210095;1297;249975;-66
2022/11/30 03:47:14;;;;;;;48.00;20.50;;;;;;;-1.07;86.30;100923.56;209903;1301;141066;-67
2022/11/30 03:52:17;;;;;;;46.30;23.00;;;;;;;-0.98;86.37;100922.10;208743;1291;142157;-66
2022/11/30 03:57:22;;;;;;;28.60;13.00;;;;;;;-0.90;86.65;100926.46;210195;1300;141046;-65
2022/11/30 04:02:25;;;;;;;41.90;19.10;;;;;;;-0.88;85.97;100927.88;210098;1302;222112;-65
2022/11/30 04:07:30;;;;;;;31.20;17.60;;;;;;;-0.83;86.30;100927.08;209930;1297;140323;-67
2022/11/30 04:12:33;;;;;;;36.30;18.80;;;;;;;-0.90;85.87;100927.91;209899;1297;140882;-64
2022/11/30 04:17:37;;;;;;;33.80;16.30;;;;;;;-1.06;85.95;100930.73;210140;1304;144025;-65
2022/11/30 04:22:40;;;;;;;38.70;18.20;;;;;;;-1.12;86.05;100931.99;209563;1305;141977;-62
2022/11/30 04:27:46;;;;;;;42.60;19.50;;;;;;;-1.17;86.23;100929.43;210060;1293;141802;-63
2022/11/30 04:32:49;;;;;;;46.60;20.60;;;;;;;-1.12;86.72;100925.33;210015;1295;141832;-63
2022/11/30 04:37:53;;;;;;;44.10;22.40;;;;;;;-0.94;86.69;100930.65;210110;1295;154274;-63
2022/11/30 04:42:57;;;;;;;37.80;18.10;;;;;;;-0.78;86.72;100929.60;210123;1298;140774;-63
2022/11/30 04:48:04;;;;;;;38.50;16.60;;;;;;;-0.77;86.32;100931.05;210308;1292;140166;-63
2022/11/30 04:53:08;;;;;;;51.40;19.50;;;;;;;-0.89;86.14;100937.00;210134;1293;140493;-63
2022/11/30 04:58:11;;;;;;;54.90;22.20;;;;;;;-0.92;86.12;100939.88;210036;1298;141853;-64
2022/11/30 05:03:15;;;;;;;47.70;19.00;;;;;;;-0.90;86.57;100940.80;210066;1293;162410;-63
2022/11/30 05:08:19;;;;;;;47.10;21.20;;;;;;;-0.81;86.66;100948.14;210014;1297;140680;-67
2022/11/30 05:13:24;;;;;;;43.70;20.90;;;;;;;-0.65;86.55;100948.05;210140;1296;140724;-67
2022/11/30 05:18:28;;;;;;;38.40;22.50;;;;;;;-0.57;86.54;100937.52;210037;1298;141036;-66
2022/11/30 05:23:31;;;;;;;48.70;23.30;;;;;;;-0.51;86.65;100943.96;210172;1295;140884;-67
2022/11/30 05:28:35;;;;;;;41.50;20.40;;;;;;;-0.43;86.45;100948.69;209913;1296;140156;-67
2022/11/30 05:33:38;;;;;;;48.00;19.60;;;;;;;-0.37;86.22;100957.77;210022;1301;140580;-67
2022/11/30 05:38:41;;;;;;;43.70;20.60;;;;;;;-0.45;85.31;100962.46;209456;1301;141341;-66
2022/11/30 05:43:45;;;;;;;27.60;13.80;;;;;;;-0.56;85.34;100964.52;210094;1303;140548;-64
2022/11/30 05:48:48;;;;;;;25.60;15.30;;;;;;;-0.83;85.46;100968.77;209911;1300;141423;-65
2022/11/30 05:53:51;;;;;;;27.90;16.70;;;;;;;-1.00;85.45;100972.88;208437;1295;141205;-65
2022/11/30 05:58:55;;;;;;;23.90;13.70;;;;;;;-1.18;85.66;100972.11;208110;1284;141275;-64
2022/11/30 06:03:58;;;;;;;26.50;14.20;;;;;;;-1.23;86.04;100976.73;210155;1294;217490;-64
2022/11/30 06:09:05;;;;;;;27.30;16.50;;;;;;;-1.25;86.05;100984.20;210048;1294;141690;-64
2022/11/30 06:14:09;;;;;;;40.90;18.00;;;;;;;-1.25;86.16;100984.56;209829;1294;140661;-64
2022/11/30 06:19:12;;;;;;;31.00;18.40;;;;;;;-1.22;86.09;100982.16;210007;1295;140913;-65
2022/11/30 06:24:15;;;;;;;37.10;17.40;;;;;;;-1.21;86.18;100981.78;210269;1302;140573;-68
2022/11/30 06:29:19;;;;;;;24.30;14.00;;;;;;;-1.17;86.05;100990.84;210217;1297;141428;-65
2022/11/30 06:34:22;;;;;;;25.10;13.30;;;;;;;-1.15;86.17;101000.82;210147;1301;140035;-65
2022/11/30 06:39:26;;;;;;;28.30;16.00;;;;;;;-1.11;86.19;101003.73;210012;1301;140242;-65
2022/11/30 06:44:49;;;;;;;30.70;15.90;;;;;;;-1.14;85.71;101002.29;210177;1301;141125;-64
2022/11/30 06:49:53;;;;;;;23.30;14.00;;;;;;;-1.16;85.86;101007.13;209952;1300;222918;-68
2022/11/30 06:54:57;;;;;;;42.90;16.90;;;;;;;-1.14;86.10;101013.29;209848;1299;141466;-65
2022/11/30 07:00:00;;;;;;;31.20;17.90;;;;;;;-1.05;86.06;101009.00;210261;1296;141548;-65
2022/11/30 07:05:05;;;;;;;32.90;19.20;;;;;;;-0.90;86.13;101017.14;210182;1300;141081;-65
2022/11/30 07:10:08;;;;;;;21.60;13.20;;;;;;;-0.87;85.91;101020.77;209919;1300;141838;-66
2022/11/30 07:15:12;;;;;;;26.20;14.10;;;;;;;-0.86;85.77;101024.36;209989;1301;141376;-67
2022/11/30 07:20:15;;;;;;;21.80;12.50;;;;;;;-0.94;85.68;101027.47;209878;1295;140118;-66
2022/11/30 07:30:41;;;;;;;29.80;15.50;;;;;;;-0.90;85.90;101028.00;210210;1295;140334;-66
2022/11/30 07:35:45;;;;;;;22.10;15.50;;;;;;;-0.77;85.97;101030.39;210127;1300;139836;-67
2022/11/30 07:40:48;;;;;;;28.20;17.70;;;;;;;-0.77;85.42;101029.84;208378;1288;141301;-65
2022/11/30 07:45:53;;;;;;;31.60;17.80;;;;;;;-0.77;85.71;101037.89;209439;1289;140975;-65
2022/11/30 07:51:04;;;;;;;27.30;15.40;;;;;;;-0.79;85.64;101044.71;209847;1297;140809;-67
2022/11/30 07:56:14;;;;;;;33.70;16.90;;;;;;;-0.79;85.46;101043.16;210099;1289;140506;-66
2022/11/30 08:01:21;;;;;;;23.50;12.80;;;;;;;-0.84;85.28;101035.20;209235;1296;141855;-67
2022/11/30 08:06:28;;;;;;;30.10;16.30;;;;;;;-0.88;85.78;101034.15;209604;1288;140574;-66
2022/11/30 08:11:33;;;;;;;24.90;15.10;;;;;;;-0.89;85.49;101029.88;210105;1295;140267;-66
2022/11/30 08:16:37;;;;;;;28.60;15.80;;;;;;;-0.94;85.24;101033.08;210084;1295;142132;-65
2022/11/30 08:21:40;;;;;;;43.80;21.20;;;;;;;-0.95;85.63;101035.95;210033;1297;142253;-66
2022/11/30 08:26:44;;;;;;;64.00;24.90;;;;;;;-0.89;85.51;101043.49;210073;1297;141480;-66
2022/11/30 08:31:47;;;;;;;66.30;25.60;;;;;;;-0.83;85.73;101042.06;210021;1300;140633;-67
2022/11/30 08:36:51;;;;;;;52.30;25.50;;;;;;;-0.70;85.44;101039.58;210050;1300;140914;-66
2022/11/30 08:41:55;;;;;;;24.70;15.90;;;;;;;-0.69;85.34;101036.56;210075;1297;140286;-66
2022/11/30 08:46:59;;;;;;;29.70;19.60;;;;;;;-0.72;85.28;101040.62;209973;1295;140566;-66
2022/11/30 08:52:04;;;;;;;29.70;18.00;;;;;;;-0.75;85.54;101039.80;209934;1296;141350;-67
2022/11/30 08:57:25;;;;;;;30.40;18.50;;;;;;;-0.65;85.62;101034.30;210141;1297;141260;-69
2022/11/30 09:02:28;;;;;;;27.70;14.90;;;;;;;-0.61;85.50;101035.98;210033;1293;140190;-68
2022/11/30 09:07:32;;;;;;;40.00;23.40;;;;;;;-0.46;85.18;101034.17;210036;1296;140158;-67
2022/11/30 09:12:40;;;;;;;35.90;21.70;;;;;;;-0.26;85.81;101038.73;210131;1295;220071;-70
2022/11/30 09:17:43;;;;;;;34.10;17.00;;;;;;;-0.06;85.70;101039.05;210093;1295;140355;-67
2022/11/30 09:22:47;;;;;;;30.10;17.50;;;;;;;0.08;85.35;101043.78;209990;1302;140688;-64
2022/11/30 09:27:51;;;;;;;29.20;21.10;;;;;;;0.21;85.21;101043.32;210073;1295;140473;-68
2022/11/30 09:32:55;;;;;;;30.20;20.30;;;;;;;0.33;85.59;101044.17;209982;1293;140086;-68
2022/11/30 09:37:58;;;;;;;23.00;13.70;;;;;;;0.43;84.87;101040.85;209931;1295;140880;-67
2022/11/30 09:43:25;;;;;;;25.60;16.90;;;;;;;0.35;83.93;101052.17;209890;1295;141741;-66
2022/11/30 09:48:36;;;;;;;;;;;;;;;0.11;83.68;101048.24;210051;1300;141094;-65
2022/11/30 09:53:43;;;;;;;21.90;15.20;;;;;;;0.04;84.41;101047.31;210885;1295;126329;-67
2022/11/30 09:58:53;;;;;;;27.40;18.90;;;;;;;0.08;83.95;101052.87;210115;1294;142418;-66
2022/11/30 10:03:58;;;;;;;36.00;18.10;;;;;;;0.08;84.10;101051.82;209876;1305;142574;-67
2022/11/30 10:09:21;;;;;;;27.40;17.70;;;;;;;0.10;83.91;101051.33;209983;1297;141999;-67
2022/11/30 10:14:40;;;;;;;26.50;15.80;;;;;;;0.10;83.95;101055.97;210114;1288;141263;-67
2022/11/30 10:20:02;;;;;;;22.80;16.50;;;;;;;0.14;83.88;101057.02;210060;1301;141103;-67
2022/11/30 10:25:18;;;;;;;26.10;15.90;;;;;;;0.16;83.51;101051.31;210046;1295;140601;-69
2022/11/30 10:30:25;;;;;;;28.90;17.70;;;;;;;0.16;84.05;101053.86;209424;1280;141276;-66
2022/11/30 10:35:57;;;;;;;44.50;22.60;;;;;;;0.20;83.66;101054.25;210188;1297;140154;-69
2022/11/30 10:41:16;;;;;;;40.90;25.40;;;;;;;0.31;84.06;101054.63;210177;1295;141015;-69
2022/11/30 10:46:29;;;;;;;31.00;19.70;;;;;;;0.46;84.20;101057.15;209772;1297;140821;-68
2022/11/30 10:51:36;;;;;;;27.90;17.80;;;;;;;0.49;83.73;101059.30;209961;1294;141896;-68
2022/11/30 10:56:40;;;;;;;25.30;15.10;;;;;;;0.40;82.95;101056.30;210014;1297;140116;-67
2022/11/30 11:01:44;;;;;;;29.70;19.30;;;;;;;0.29;82.87;101057.98;209632;1291;286069;-67
2022/11/30 11:06:55;;;;;;;38.10;22.10;;;;;;;0.31;83.25;101050.66;210144;1297;141510;-68
2022/11/30 11:12:29;;;;;;;36.10;19.90;;;;;;;0.37;83.49;101048.69;210062;1297;140580;-68
2022/11/30 11:17:34;;;;;;;25.70;17.20;;;;;;;0.42;83.15;101046.16;210203;1297;140631;-68
2022/11/30 11:22:37;;;;;;;37.50;23.10;;;;;;;0.36;82.81;101047.03;210083;1294;141320;-67
2022/11/30 11:27:41;;;;;;;44.70;23.00;;;;;;;0.27;83.18;101043.15;210087;1297;140311;-67
2022/11/30 11:33:10;;;;;;;25.80;14.90;;;;;;;0.37;83.75;101044.30;209781;1303;141074;-68
2022/11/30 11:38:19;;;;;;;29.10;18.00;;;;;;;0.46;82.99;101050.00;210036;1295;140069;-67
2022/11/30 11:43:26;;;;;;;49.10;21.80;;;;;;;0.44;83.11;101058.39;210018;1287;139811;-68
2022/11/30 11:48:37;;;;;;;28.20;15.40;;;;;;;0.41;83.10;101060.92;209513;1295;140960;-67
2022/11/30 11:53:52;;;;;;;32.00;19.60;;;;;;;0.37;82.70;101058.88;208285;1281;140165;-65
2022/11/30 11:59:08;;;;;;;30.60;15.60;;;;;;;0.28;82.46;101061.73;209993;1297;141493;-66
2022/11/30 12:04:44;;;;;;;23.10;14.80;;;;;;;0.22;82.31;101065.06;210073;1295;141328;-66
2022/11/30 12:10:14;;;;;;;27.00;16.60;;;;;;;0.16;82.33;101060.75;209314;1297;140112;-66
2022/11/30 12:15:48;;;;;;;36.30;16.70;;;;;;;0.05;82.26;101060.15;210098;1298;139888;-67
2022/11/30 12:21:06;;;;;;;113.50;31.20;;;;;;;0.02;82.47;101063.54;209862;1288;139759;-68
2022/11/30 12:26:13;;;;;;;185.20;55.50;;;;;;;0.02;82.69;101061.65;209700;1295;141641;-66
2022/11/30 12:31:17;;;;;;;55.30;25.40;;;;;;;0.03;82.46;101068.98;210149;1287;141133;-66
2022/11/30 12:36:54;;;;;;;52.40;22.70;;;;;;;0.01;82.72;101072.48;209617;1296;141053;-66
2022/11/30 12:42:04;;;;;;;30.80;17.80;;;;;;;0.06;82.96;101076.62;210083;1295;140856;-66
2022/11/30 12:47:39;;;;;;;23.50;12.90;;;;;;;0.16;82.88;101076.23;210066;1288;141379;-66
2022/11/30 12:53:04;;;;;;;19.20;13.30;;;;;;;0.13;82.36;101074.08;210047;1297;140328;-66
2022/11/30 12:58:30;;;;;;;26.70;17.30;;;;;;;0.16;82.51;101069.80;209952;1294;140288;-67
2022/11/30 13:04:03;;;;;;;34.90;16.90;;;;;;;0.20;82.78;101068.52;209916;1294;141261;-67
2022/11/30 13:09:32;;;;;;;41.80;19.50;;;;;;;0.36;82.92;101066.64;210006;1297;140944;-66
2022/11/30 13:14:37;;;;;;;37.90;20.80;;;;;;;0.52;82.92;101067.70;210100;1296;140170;-66
2022/11/30 13:19:51;;;;;;;22.60;12.80;;;;;;;0.60;83.06;101061.66;210080;1297;140250;-66
2022/11/30 13:25:33;;;;;;;22.20;13.90;;;;;;;0.63;82.27;101055.59;210071;1296;140825;-66
2022/11/30 13:31:04;;;;;;;24.10;15.60;;;;;;;0.65;81.91;101050.73;209849;1290;140331;-66
2022/11/30 13:36:32;;;;;;;27.50;15.00;;;;;;;0.69;82.50;101049.44;210076;1297;140960;-67
2022/11/30 13:41:37;;;;;;;18.90;10.10;;;;;;;0.75;82.31;101050.88;210102;1304;141594;-67
2022/11/30 13:46:49;;;;;;;27.80;17.90;;;;;;;0.76;81.81;101056.52;208607;1294;140665;-66
2022/11/30 13:51:53;;;;;;;23.40;14.00;;;;;;;0.82;81.95;101051.96;210058;1281;140483;-68
2022/11/30 13:57:37;;;;;;;22.20;13.30;;;;;;;0.90;82.16;101055.60;210081;1297;246167;-67
2022/11/30 14:02:44;;;;;;;27.20;15.30;;;;;;;0.89;81.82;101058.88;210143;1295;140186;-66
2022/11/30 14:07:59;;;;;;;26.30;16.60;;;;;;;0.91;82.08;101059.23;210039;1289;139986;-67
2022/11/30 14:13:09;;;;;;;28.70;16.10;;;;;;;0.89;81.87;101061.14;210152;1304;140130;-68
2022/11/30 14:18:22;;;;;;;33.80;17.40;;;;;;;0.89;81.40;101057.96;208999;1289;140148;-69
2022/11/30 14:23:46;;;;;;;28.30;18.70;;;;;;;0.92;81.59;101061.92;207309;1298;140886;-65
2022/11/30 14:28:57;;;;;;;27.20;17.50;;;;;;;0.95;81.44;101059.66;210257;1295;139530;-66
2022/11/30 14:34:26;;;;;;;25.80;17.50;;;;;;;0.96;81.75;101057.64;210147;1302;229576;-66
2022/11/30 14:39:37;;;;;;;26.00;15.40;;;;;;;0.98;81.89;101068.02;210248;1296;140394;-66
2022/11/30 14:44:42;;;;;;;21.50;14.90;;;;;;;0.97;81.43;101068.59;208531;1281;140512;-65
2022/11/30 14:49:50;;;;;;;30.50;16.00;;;;;;;0.97;81.65;101072.45;208323;1288;139743;-66
2022/11/30 14:54:57;;;;;;;34.30;20.10;;;;;;;0.93;81.33;101061.27;208651;1290;140311;-66
2022/11/30 15:00:04;;;;;;;34.90;19.10;;;;;;;0.97;81.04;101063.30;210250;1287;140850;-66
2022/11/30 15:05:18;;;;;;;39.30;22.00;;;;;;;0.93;81.16;101059.83;210009;1297;139599;-66
2022/11/30 15:10:31;;;;;;;25.30;15.00;;;;;;;0.90;80.87;101059.66;210001;1300;139590;-67
2022/11/30 15:15:36;;;;;;;27.00;14.40;;;;;;;0.87;80.89;101059.36;209960;1295;140008;-68
2022/11/30 15:21:05;;;;;;;24.60;15.60;;;;;;;0.89;80.87;101065.31;210018;1297;140720;-67
2022/11/30 15:26:18;;;;;;;29.00;15.70;;;;;;;0.94;81.22;101065.71;209892;1297;141057;-67
2022/11/30 15:31:23;;;;;;;26.80;16.00;;;;;;;0.98;81.02;101062.77;210064;1297;140609;-67
2022/11/30 15:36:37;;;;;;;33.00;18.90;;;;;;;1.07;81.14;101059.30;209935;1291;140750;-68
2022/11/30 15:41:40;;;;;;;25.90;16.30;;;;;;;1.12;80.98;101061.01;210132;1287;141501;-68
2022/11/30 15:46:55;;;;;;;26.30;19.20;;;;;;;1.11;80.74;101064.91;209939;1298;140650;-67
2022/11/30 15:52:08;;;;;;;24.80;15.80;;;;;;;1.08;80.88;101063.44;210156;1297;140119;-67
2022/11/30 15:57:15;;;;;;;30.10;17.30;;;;;;;1.05;80.74;101062.67;209706;1297;139756;-66
2022/11/30 16:02:31;;;;;;;29.70;14.40;;;;;;;0.97;80.40;101063.51;210112;1297;140846;-66
2022/11/30 16:07:47;;;;;;;25.80;15.40;;;;;;;0.76;80.10;101069.30;209990;1297;139978;-66
2022/11/30 16:12:54;;;;;;;25.90;15.20;;;;;;;0.67;80.59;101072.23;208008;1288;140072;-65
2022/11/30 16:18:17;;;;;;;19.30;13.50;;;;;;;0.67;80.24;101072.17;209170;1294;141335;-67
2022/11/30 16:23:23;;;;;;;26.60;16.40;;;;;;;0.55;80.42;101079.98;209975;1297;140566;-67
2022/11/30 16:28:29;;;;;;;22.30;15.80;;;;;;;0.49;80.40;101085.08;209882;1288;140133;-68
2022/11/30 16:33:36;;;;;;;22.20;13.10;;;;;;;0.49;80.51;101089.05;208767;1288;139664;-66
2022/11/30 16:38:41;;;;;;;24.80;15.40;;;;;;;0.55;80.56;101091.91;209344;1288;142301;-66
2022/11/30 16:43:51;;;;;;;23.80;14.40;;;;;;;0.67;81.00;101090.94;209038;1290;140075;-65
2022/11/30 16:48:57;;;;;;;11.80;9.20;;;;;;;0.73;80.83;101093.23;209664;1297;140491;-67
2022/11/30 16:54:02;;;;;;;18.00;10.40;;;;;;;0.67;80.23;101097.58;210159;1295;142101;-66
2022/11/30 16:59:06;;;;;;;21.30;10.90;;;;;;;0.64;79.89;101103.08;209885;1297;141644;-67
2022/11/30 17:04:20;;;;;;;13.80;9.50;;;;;;;0.62;80.22;101109.38;209961;1295;140531;-66
2022/11/30 17:09:25;;;;;;;18.10;10.70;;;;;;;0.59;80.50;101115.67;210152;1297;140144;-66
2022/11/30 17:14:29;;;;;;;18.00;12.30;;;;;;;0.65;80.29;101123.80;209962;1297;140594;-66
2022/11/30 17:19:33;;;;;;;21.10;13.60;;;;;;;0.57;79.94;101124.71;210125;1295;140561;-67
2022/11/30 17:24:38;;;;;;;18.20;11.10;;;;;;;0.41;79.90;101120.79;209884;1297;141232;-68
2022/11/30 17:29:43;;;;;;;24.60;13.00;;;;;;;0.30;79.72;101124.28;210065;1295;140875;-66
2022/11/30 17:34:49;;;;;;;21.90;11.80;;;;;;;0.21;79.78;101125.17;209955;1294;139943;-66
2022/11/30 17:39:52;;;;;;;21.10;11.20;;;;;;;0.18;80.02;101128.72;209907;1290;140536;-66
2022/11/30 17:44:57;;;;;;;19.80;11.40;;;;;;;0.11;80.25;101127.05;209917;1297;141528;-66
2022/11/30 17:50:01;;;;;;;25.80;13.60;;;;;;;0.14;80.28;101131.54;209886;1288;140877;-66
2022/11/30 17:55:05;;;;;;;21.30;12.90;;;;;;;0.21;80.25;101134.58;210064;1297;140142;-67
2022/11/30 18:00:09;;;;;;;24.70;13.90;;;;;;;0.23;80.39;101139.95;210187;1297;140758;-67
2022/11/30 18:05:14;;;;;;;51.00;18.70;;;;;;;0.29;80.15;101135.98;210034;1295;143974;-67
2022/11/30 18:10:17;;;;;;;56.30;22.20;;;;;;;0.33;80.19;101133.36;209970;1294;141520;-67
2022/11/30 18:15:21;;;;;;;51.90;17.40;;;;;;;0.26;80.14;101127.67;210096;1294;140603;-67
2022/11/30 18:20:25;;;;;;;46.40;18.90;;;;;;;0.27;80.54;101130.02;210169;1294;141776;-67
2022/11/30 18:25:32;;;;;;;32.60;13.90;;;;;;;0.32;80.57;101134.30;210243;1296;140119;-66
2022/11/30 18:30:38;;;;;;;23.10;10.40;;;;;;;0.36;80.84;101134.14;210187;1302;140741;-67
2022/11/30 18:35:41;;;;;;;17.40;10.30;;;;;;;0.40;80.80;101135.36;210137;1294;140803;-66
2022/11/30 18:40:45;;;;;;;19.40;12.20;;;;;;;0.38;80.62;101139.72;210026;1295;153104;-67
2022/11/30 18:45:49;;;;;;;18.70;10.30;;;;;;;0.39;80.85;101138.61;210018;1295;139713;-66
2022/11/30 18:50:54;;;;;;;16.00;9.10;;;;;;;0.37;80.75;101138.75;210047;1295;140050;-66
2022/11/30 18:56:07;;;;;;;21.20;11.20;;;;;;;0.33;80.47;101140.17;210099;1290;140060;-66
2022/11/30 19:01:14;;;;;;;16.60;11.00;;;;;;;0.28;80.70;101151.06;210060;1292;141092;-66
2022/11/30 19:06:19;;;;;;;23.40;14.20;;;;;;;0.26;80.35;101151.39;209922;1297;141183;-67
2022/11/30 19:11:25;;;;;;;17.40;10.40;;;;;;;0.30;80.71;101153.55;209955;1293;139907;-67
2022/11/30 19:16:30;;;;;;;17.20;11.90;;;;;;;0.30;80.46;101153.64;210059;1295;140099;-66
2022/11/30 19:21:35;;;;;;;21.10;13.10;;;;;;;0.26;80.95;101157.55;210037;1294;140673;-66
2022/11/30 19:26:39;;;;;;;17.10;9.90;;;;;;;0.28;80.95;101160.51;210123;1293;140443;-66
2022/11/30 19:31:43;;;;;;;18.90;12.00;;;;;;;0.27;80.93;101162.40;209923;1295;140145;-66
2022/11/30 19:36:47;;;;;;;20.90;12.60;;;;;;;0.28;80.73;101166.33;210073;1291;140625;-66
2022/11/30 19:41:51;;;;;;;24.40;14.60;;;;;;;0.33;80.84;101163.73;210112;1301;140765;-67
2022/11/30 19:46:54;;;;;;;36.10;16.70;;;;;;;0.32;80.95;101169.21;210171;1294;140400;-66
2022/11/30 19:51:58;;;;;;;99.70;30.20;;;;;;;0.41;80.80;101167.84;209953;1280;141361;-67
2022/11/30 19:57:01;;;;;;;98.50;32.90;;;;;;;0.50;81.09;101173.09;210053;1297;140196;-68
2022/11/30 20:02:05;;;;;;;26.50;12.10;;;;;;;0.54;80.96;101177.86;209867;1298;140537;-67
2022/11/30 20:07:09;;;;;;;32.90;18.50;;;;;;;0.51;80.67;101179.01;209658;1297;139754;-67
2022/11/30 20:12:16;;;;;;;27.30;15.80;;;;;;;0.46;80.75;101182.23;209505;1297;141270;-66
2022/11/30 20:17:19;;;;;;;23.50;13.40;;;;;;;0.43;80.69;101186.48;209992;1290;141209;-66
2022/11/30 20:22:25;;;;;;;31.30;18.80;;;;;;;0.40;80.43;101187.96;209630;1295;141536;-66
2022/11/30 20:27:34;;;;;;;16.40;10.40;;;;;;;0.36;80.84;101192.86;209901;1288;140118;-67
2022/11/30 20:32:41;;;;;;;23.50;14.00;;;;;;;0.44;80.83;101188.03;209477;1288;139893;-67
2022/11/30 20:37:44;;;;;;;28.50;16.60;;;;;;;0.55;81.11;101194.73;209889;1295;141289;-65
2022/11/30 20:42:50;;;;;;;26.70;16.30;;;;;;;0.60;81.05;101197.75;209966;1293;139693;-66
2022/11/30 20:47:57;;;;;;;27.80;16.80;;;;;;;0.62;80.75;101194.10;209991;1296;140687;-66
2022/11/30 20:53:00;;;;;;;23.50;14.40;;;;;;;0.69;80.75;101194.16;210013;1298;143218;-65
2022/11/30 20:58:04;;;;;;;15.70;8.50;;;;;;;0.79;80.87;101191.92;209895;1293;141321;-67
2022/11/30 21:03:08;;;;;;;17.70;11.20;;;;;;;0.74;80.58;101190.56;209102;1288;140357;-66
2022/11/30 21:08:13;;;;;;;20.90;14.10;;;;;;;0.74;80.42;101191.14;210139;1301;140578;-66
2022/11/30 21:13:18;;;;;;;24.50;14.10;;;;;;;0.75;80.28;101186.67;209941;1296;140463;-66
2022/11/30 21:18:21;;;;;;;19.50;11.40;;;;;;;0.74;80.74;101186.17;210170;1300;140135;-65
2022/11/30 21:23:26;;;;;;;17.30;11.50;;;;;;;0.76;80.32;101186.73;209937;1300;139890;-66
2022/11/30 21:28:30;;;;;;;24.80;14.40;;;;;;;0.77;80.37;101186.09;210078;1302;140444;-67
2022/11/30 21:33:40;;;;;;;25.50;16.30;;;;;;;0.75;80.60;101185.27;210230;1286;141441;-67
2022/11/30 21:39:02;;;;;;;35.80;16.60;;;;;;;0.80;80.71;101183.25;210161;1297;141597;-66
2022/11/30 21:44:11;;;;;;;107.90;27.60;;;;;;;0.83;80.49;101188.02;209893;1292;248673;-66
2022/11/30 21:49:15;;;;;;;134.50;35.60;;;;;;;0.92;80.32;101184.58;209744;1300;141947;-68
2022/11/30 21:54:19;;;;;;;56.90;20.80;;;;;;;0.94;80.44;101185.58;210031;1294;140702;-64
2022/11/30 21:59:22;;;;;;;35.20;16.80;;;;;;;1.01;80.69;101178.48;209925;1297;141347;-64
2022/11/30 22:04:26;;;;;;;28.80;18.50;;;;;;;1.04;80.68;101173.35;210116;1296;142174;-64
2022/11/30 22:09:30;;;;;;;29.00;16.70;;;;;;;1.04;80.85;101165.16;209895;1295;140353;-73
2022/11/30 22:14:35;;;;;;;31.60;18.40;;;;;;;1.15;80.56;101165.92;209928;1300;142038;-66
2022/11/30 22:19:38;;;;;;;33.20;18.00;;;;;;;1.25;80.71;101165.15;209895;1298;160427;-65
2022/11/30 22:24:42;;;;;;;41.80;22.10;;;;;;;1.33;80.70;101164.27;209879;1287;140450;-65
2022/11/30 22:29:47;;;;;;;49.00;23.30;;;;;;;1.35;80.61;101163.48;210142;1299;141586;-68
2022/11/30 22:34:51;;;;;;;37.80;18.50;;;;;;;1.34;80.60;101168.65;209945;1298;140148;-68
2022/11/30 22:39:55;;;;;;;31.90;20.00;;;;;;;1.36;80.68;101163.79;210117;1298;141766;-70
2022/11/30 22:44:58;;;;;;;32.00;18.30;;;;;;;1.38;80.39;101163.95;207982;1296;139952;-65
2022/11/30 22:50:03;;;;;;;23.70;14.00;;;;;;;1.43;80.13;101167.88;209323;1307;142400;-71
2022/11/30 22:55:07;;;;;;;25.90;15.40;;;;;;;1.36;79.99;101171.61;209916;1287;140631;-70
2022/11/30 23:00:11;;;;;;;23.80;14.00;;;;;;;1.22;79.71;101167.70;209710;1301;429618;-69
2022/11/30 23:05:15;;;;;;;23.40;15.40;;;;;;;1.25;79.81;101167.45;209977;1295;141581;-69